Terminal Aerodrome Forecast
Issued by NWS

Current Version | Previous Version | Text Only | Print | Product List | Glossary On
Versions: 1 2 3 4 5 6 7 8 9 10 11 12 13 14 15
000
FTUS44 KTSA 301700
TAFRVS
TAF
KRVS 301725Z 3018/3118 22003KT P6SM SCT040
     FM310000 13005KT P6SM FEW250
     FM310700 00000KT P6SM FEW250
     FM311400 17006KT P6SM SCT250
     FM311700 19010KT P6SM FEW040 SCT250=

USA.gov is the U.S. government's official web portal to all federal, state and local government web resources and services.